Time;durP1;ratioP1;P1;durP2;ratioP2;P2;SDS_P1;SDS_P2;PMS_P1;PMS_P2;Temp;Humidity;BMP_temperature;BMP_pressure;BME280_temperature;BME280_humidity;BME280_pressure;Samples;Min_cycle;Max_cycle;Signal;HPM_P1;HPM_P2
2022/12/15 00:40:40;;;;;;;15.38;9.98;;;;;;;-4.55;100.00;100694.91;5136039;27;20079;-36
2022/12/15 00:43:05;;;;;;;15.37;10.13;;;;;;;-4.56;100.00;100687.97;5135604;27;20048;-36
2022/12/15 00:48:15;;;;;;;15.85;10.90;;;;;;;-4.71;100.00;100686.72;5135536;27;20061;-35
2022/12/15 00:50:52;;;;;;;16.07;11.07;;;;;;;-4.67;100.00;100703.94;5135182;27;20368;-35
2022/12/15 01:20:38;;;;;;;15.93;10.50;;;;;;;-4.53;100.00;100702.72;5135340;27;20084;-35
2022/12/15 01:23:03;;;;;;;16.00;10.88;;;;;;;-4.64;100.00;100694.91;5134092;27;20043;-36
2022/12/15 01:25:29;;;;;;;15.43;10.63;;;;;;;-4.52;100.00;100694.66;5135307;27;20502;-35
2022/12/15 01:27:54;;;;;;;13.87;10.23;;;;;;;-4.69;100.00;100684.75;5135271;27;20131;-36
2022/12/15 01:30:22;;;;;;;16.37;10.20;;;;;;;-4.51;100.00;100721.88;5135291;27;20055;-36
2022/12/15 01:32:48;;;;;;;16.73;11.07;;;;;;;-4.60;100.00;100720.88;5135069;27;20015;-37
2022/12/15 01:35:14;;;;;;;14.75;10.18;;;;;;;-4.64;100.00;100719.47;5134401;27;20426;-36
2022/12/15 01:37:39;;;;;;;15.35;10.65;;;;;;;-4.90;100.00;100713.03;5135190;27;20059;-36
2022/12/15 01:42:51;;;;;;;15.75;10.65;;;;;;;-4.80;100.00;100720.00;5135070;27;20101;-36
2022/12/15 01:45:25;;;;;;;15.20;10.45;;;;;;;-4.76;100.00;100720.59;5133289;27;20483;-36
2022/12/15 01:47:52;;;;;;;16.17;9.95;;;;;;;-4.73;100.00;100720.31;5134554;27;20034;-36
2022/12/15 01:50:18;;;;;;;14.75;10.98;;;;;;;-4.70;100.00;100731.41;5134028;27;20030;-36
2022/12/15 01:52:45;;;;;;;17.58;11.27;;;;;;;-4.70;100.00;100736.69;5133995;27;20023;-36
2022/12/15 01:55:11;;;;;;;19.23;11.35;;;;;;;-4.76;100.00;100747.78;5134493;27;20034;-36
2022/12/15 01:57:37;;;;;;;16.00;10.32;;;;;;;-4.63;100.00;100734.38;5134211;27;20031;-36
2022/12/15 02:00:07;;;;;;;16.20;10.50;;;;;;;-4.66;100.00;100732.00;5134599;27;20072;-36
2022/12/15 02:02:35;;;;;;;18.08;10.32;;;;;;;-4.64;100.00;100735.31;5134110;27;20415;-36
2022/12/15 02:05:02;;;;;;;15.32;10.73;;;;;;;-4.56;100.00;100742.56;5133892;27;20100;-36
2022/12/15 02:07:28;;;;;;;15.93;10.80;;;;;;;-4.70;100.00;100738.50;5134799;27;20389;-36
2022/12/15 02:09:56;;;;;;;14.82;10.68;;;;;;;-4.78;100.00;100726.00;5134405;27;20031;-36
2022/12/15 02:12:46;;;;;;;16.52;10.38;;;;;;;-4.67;100.00;100741.72;5134017;27;20049;-36
2022/12/15 02:15:14;;;;;;;14.98;10.63;;;;;;;-4.73;100.00;100736.97;5134659;27;20064;-36
2022/12/15 02:18:08;;;;;;;15.52;10.70;;;;;;;-4.78;100.00;100759.44;5134034;27;20109;-36
2022/12/15 02:20:42;;;;;;;15.50;10.57;;;;;;;-4.67;100.00;100759.34;5134216;27;20019;-36
2022/12/15 02:23:29;;;;;;;18.67;11.85;;;;;;;-4.71;100.00;100765.88;5134203;27;20023;-36
2022/12/15 02:26:21;;;;;;;15.82;10.65;;;;;;;-4.65;100.00;100762.69;5134431;27;20106;-36
2022/12/15 02:29:01;;;;;;;14.95;10.45;;;;;;;-4.72;100.00;100740.44;5133904;27;20054;-36
2022/12/15 02:31:50;;;;;;;14.63;10.65;;;;;;;-4.61;100.00;100763.25;5134317;27;20027;-36
2022/12/15 02:34:33;;;;;;;15.82;9.85;;;;;;;-4.63;100.00;100765.22;5133878;27;20023;-36
2022/12/15 02:37:13;;;;;;;15.93;11.05;;;;;;;-4.78;100.00;100760.31;5133803;28;20027;-36
2022/12/15 02:39:38;;;;;;;18.10;11.13;;;;;;;-4.90;100.00;100749.97;5133417;27;20550;-36
2022/12/15 02:42:03;;;;;;;16.57;10.93;;;;;;;-4.86;100.00;100765.41;5133773;27;20114;-36
2022/12/15 02:44:55;;;;;;;14.97;10.30;;;;;;;-4.68;100.00;100765.59;5134088;27;20709;-36
2022/12/15 02:47:45;;;;;;;14.68;10.35;;;;;;;-4.67;100.00;100762.00;5133427;27;20019;-36
2022/12/15 02:50:45;;;;;;;13.93;9.48;;;;;;;-4.62;100.00;100765.06;5134003;27;20106;-36
2022/12/15 02:53:19;;;;;;;15.63;10.70;;;;;;;-4.78;100.00;100762.06;5134417;28;20106;-35
2022/12/15 02:56:04;;;;;;;15.82;11.88;;;;;;;-4.78;100.00;100764.72;5134050;27;20417;-35
2022/12/15 02:58:41;;;;;;;14.95;10.27;;;;;;;-4.88;100.00;100753.28;5133653;27;20123;-35
2022/12/15 03:01:21;;;;;;;15.40;10.35;;;;;;;-4.89;100.00;100762.19;5133255;27;20483;-35
2022/12/15 03:03:48;;;;;;;15.80;10.27;;;;;;;-4.93;100.00;100767.75;5133851;27;20072;-35
2022/12/15 03:06:15;;;;;;;15.93;10.73;;;;;;;-4.83;100.00;100773.06;5133563;27;20030;-35
2022/12/15 03:08:41;;;;;;;16.23;10.60;;;;;;;-4.95;100.00;100769.66;5133426;27;20472;-36
2022/12/15 03:11:06;;;;;;;16.03;10.87;;;;;;;-5.02;100.00;100762.44;5132306;28;20126;-35
2022/12/15 03:13:31;;;;;;;16.40;10.13;;;;;;;-4.90;100.00;100766.63;5133255;27;20325;-36
2022/12/15 03:15:59;;;;;;;15.00;10.73;;;;;;;-4.77;100.00;100777.78;5133699;27;20023;-36
2022/12/15 03:18:24;;;;;;;17.42;10.73;;;;;;;-4.75;100.00;100767.09;5133595;27;20019;-36
2022/12/15 03:20:49;;;;;;;15.97;10.97;;;;;;;-4.71;100.00;100776.41;5133256;27;20034;-36
2022/12/15 03:23:15;;;;;;;14.00;10.67;;;;;;;-4.91;100.00;100764.97;5133050;27;20024;-36
2022/12/15 03:25:43;;;;;;;16.65;10.65;;;;;;;-4.88;100.00;100777.91;5131966;28;20026;-41
2022/12/15 03:28:09;;;;;;;16.52;11.60;;;;;;;-4.87;100.00;100781.38;5132824;27;20072;-36
2022/12/15 03:30:34;;;;;;;13.83;9.73;;;;;;;-4.89;100.00;100746.34;5134037;27;20073;-36
2022/12/15 03:33:00;;;;;;;16.37;10.53;;;;;;;-4.77;100.00;100787.50;5133542;28;20046;-36
2022/12/15 03:35:25;;;;;;;16.37;11.67;;;;;;;-4.87;100.00;100786.63;5133262;27;20023;-36
2022/12/15 03:37:50;;;;;;;15.80;10.97;;;;;;;-4.87;100.00;100799.84;5132246;28;20256;-36
2022/12/15 03:40:16;;;;;;;15.83;11.07;;;;;;;-4.96;100.00;100798.81;5133146;27;20027;-36
2022/12/15 03:42:49;;;;;;;15.47;10.30;;;;;;;-4.89;100.00;100793.84;5133564;27;20038;-36
2022/12/15 03:45:20;;;;;;;17.17;10.95;;;;;;;-4.87;100.00;100791.91;5133200;27;20076;-36
2022/12/15 03:47:46;;;;;;;15.90;10.98;;;;;;;-4.77;100.00;100803.34;5137366;27;20167;-36
2022/12/15 03:50:15;;;;;;;16.58;11.45;;;;;;;-4.88;100.00;100796.38;5136771;27;20038;-36
2022/12/15 03:52:41;;;;;;;17.35;11.50;;;;;;;-4.83;100.00;100803.84;5118509;27;20023;-36
2022/12/15 03:55:07;;;;;;;18.23;11.30;;;;;;;-4.93;100.00;100804.66;5136685;27;20151;-36
2022/12/15 03:57:33;;;;;;;18.33;12.70;;;;;;;-5.00;100.00;100803.50;5136879;27;20046;-36
2022/12/15 03:59:58;;;;;;;15.00;11.02;;;;;;;-4.86;100.00;100796.22;5137125;27;20027;-36
2022/12/15 04:02:23;;;;;;;15.70;10.53;;;;;;;-4.84;100.00;100802.19;5136278;27;20032;-36
2022/12/15 04:04:49;;;;;;;18.90;11.70;;;;;;;-4.96;100.00;100798.81;5136500;27;20112;-36
2022/12/15 04:07:14;;;;;;;17.20;11.07;;;;;;;-4.98;100.00;100783.13;5136494;27;20072;-36
2022/12/15 04:09:40;;;;;;;17.80;12.70;;;;;;;-5.17;100.00;100764.59;5136495;27;20027;-36
2022/12/15 04:12:06;;;;;;;18.25;11.77;;;;;;;-5.03;100.00;100792.38;5136885;27;20095;-36
2022/12/15 04:14:31;;;;;;;13.75;10.38;;;;;;;-4.83;100.00;100795.94;5136380;27;20431;-37
2022/12/15 04:16:57;;;;;;;18.10;12.02;;;;;;;-4.75;100.00;100793.47;5136232;27;20031;-36
2022/12/15 04:22:06;;;;;;;16.38;11.32;;;;;;;-4.76;100.00;100795.28;5136919;27;20084;-36
2022/12/15 05:32:56;;;;;;;16.13;12.05;;;;;;;-4.93;100.00;100817.84;5134759;27;20068;-36
2022/12/15 05:35:21;;;;;;;19.60;13.57;;;;;;;-5.10;100.00;100797.34;5133210;27;20047;-36
2022/12/15 05:37:46;;;;;;;18.83;12.57;;;;;;;-4.98;100.00;100827.09;5134670;27;20119;-36
2022/12/15 05:40:12;;;;;;;19.63;13.17;;;;;;;-5.01;100.00;100832.66;5134645;27;20095;-36
2022/12/15 05:42:37;;;;;;;17.13;12.43;;;;;;;-4.96;100.00;100825.19;5134825;27;20520;-36
2022/12/15 05:45:04;;;;;;;16.27;11.57;;;;;;;-5.04;100.00;100833.75;5135181;27;20784;-36
2022/12/15 05:47:29;;;;;;;16.88;11.88;;;;;;;-5.03;100.00;100829.28;5134413;27;20054;-36
2022/12/15 05:49:55;;;;;;;17.25;12.82;;;;;;;-4.92;100.00;100834.50;5134985;27;20054;-36
2022/12/15 05:52:20;;;;;;;17.27;12.73;;;;;;;-5.08;100.00;100813.03;5134895;27;20439;-36
2022/12/15 05:54:45;;;;;;;18.67;12.83;;;;;;;-4.79;100.00;100842.19;5134396;27;20034;-36
2022/12/15 05:57:10;;;;;;;22.30;13.40;;;;;;;-4.79;100.00;100844.84;5133700;27;20045;-36
2022/12/15 05:59:36;;;;;;;17.90;13.13;;;;;;;-4.93;100.00;100836.31;5132946;27;20110;-36
2022/12/15 06:02:01;;;;;;;17.93;12.63;;;;;;;-5.01;100.00;100838.75;5115986;27;20069;-36
2022/12/15 06:04:26;;;;;;;17.57;12.20;;;;;;;-5.06;100.00;100835.69;5134565;27;20033;-36
2022/12/15 06:06:52;;;;;;;18.47;13.03;;;;;;;-5.09;100.00;100851.75;5134297;27;20160;-36
2022/12/15 06:09:17;;;;;;;18.37;12.63;;;;;;;-4.98;100.00;100845.56;5133811;27;20118;-36
2022/12/15 06:11:42;;;;;;;18.53;12.90;;;;;;;-4.94;100.00;100846.97;5134686;27;20117;-36
2022/12/15 06:14:08;;;;;;;18.50;12.67;;;;;;;-4.96;100.00;100857.66;5134710;27;20076;-36
2022/12/15 06:16:34;;;;;;;21.60;13.85;;;;;;;-5.20;100.00;100834.22;5134827;27;20030;-36
2022/12/15 06:19:01;;;;;;;20.08;13.80;;;;;;;-5.06;100.00;100859.41;5134522;27;20050;-36
2022/12/15 06:21:34;;;;;;;17.73;12.82;;;;;;;-4.93;100.00;100859.19;5133955;27;20051;-36
2022/12/15 06:24:00;;;;;;;17.92;12.57;;;;;;;-4.99;100.00;100852.63;5134041;27;20038;-36
2022/12/15 06:26:34;;;;;;;20.67;13.10;;;;;;;-4.94;100.00;100861.00;5133978;27;20027;-36
2022/12/15 06:29:04;;;;;;;19.30;13.48;;;;;;;-5.13;100.00;100874.06;5134444;27;20058;-35
2022/12/15 06:31:30;;;;;;;18.77;13.52;;;;;;;-5.32;100.00;100852.84;5133971;27;20437;-37
2022/12/15 06:33:56;;;;;;;20.77;13.65;;;;;;;-5.14;100.00;100864.50;5133421;27;20471;-36
2022/12/15 06:36:22;;;;;;;18.67;13.68;;;;;;;-4.99;100.00;100863.19;5134163;27;20448;-36
2022/12/15 06:38:49;;;;;;;19.52;13.85;;;;;;;-5.08;100.00;100847.31;5133848;27;20420;-36
2022/12/15 06:41:17;;;;;;;18.73;13.52;;;;;;;-5.03;100.00;100834.56;5134290;27;20027;-36
2022/12/15 06:43:47;;;;;;;20.65;14.13;;;;;;;-4.98;100.00;100862.25;5133249;28;20386;-35
2022/12/15 06:46:13;;;;;;;22.17;13.75;;;;;;;-5.09;100.00;100845.66;5134113;28;20030;-36
2022/12/15 06:48:38;;;;;;;19.63;13.30;;;;;;;-5.02;100.00;100875.81;5134781;27;20035;-36
2022/12/15 06:51:05;;;;;;;20.83;14.03;;;;;;;-5.08;100.00;100871.03;5133697;27;20038;-36
2022/12/15 06:53:34;;;;;;;20.63;13.93;;;;;;;-5.07;100.00;100870.94;5134135;27;20252;-36
2022/12/15 06:56:01;;;;;;;18.40;13.73;;;;;;;-4.88;100.00;100862.31;5134068;27;20038;-37
2022/12/15 06:58:27;;;;;;;20.25;15.18;;;;;;;-5.04;100.00;100849.56;5134367;27;20064;-37
2022/12/15 07:00:53;;;;;;;25.65;15.20;;;;;;;-5.09;100.00;100867.56;5132527;28;20035;-37
2022/12/15 07:03:19;;;;;;;21.65;14.43;;;;;;;-5.19;100.00;100864.03;5133911;27;20023;-37
2022/12/15 07:05:45;;;;;;;20.23;14.02;;;;;;;-5.16;100.00;100857.69;5133451;27;20121;-35
2022/12/15 07:08:11;;;;;;;21.48;14.23;;;;;;;-5.17;100.00;100833.13;5133997;27;20027;-36
2022/12/15 07:10:42;;;;;;;22.30;13.90;;;;;;;-4.96;100.00;100877.94;5133444;27;20141;-35
2022/12/15 07:13:11;;;;;;;22.02;14.80;;;;;;;-5.00;100.00;100884.44;5133733;27;20471;-36
2022/12/15 07:15:37;;;;;;;23.13;15.20;;;;;;;-5.11;100.00;100885.34;5133477;27;20031;-35
2022/12/15 07:18:03;;;;;;;19.85;13.98;;;;;;;-5.14;100.00;100888.22;5133795;27;20027;-35
2022/12/15 07:20:28;;;;;;;21.38;14.70;;;;;;;-5.26;100.00;100855.81;5135422;27;20035;-36
2022/12/15 07:22:54;;;;;;;21.50;15.38;;;;;;;-5.12;100.00;100888.09;5137366;27;20363;-36
2022/12/15 07:25:19;;;;;;;22.90;14.15;;;;;;;-5.09;100.00;100891.31;5137205;27;20045;-36
2022/12/15 07:27:46;;;;;;;24.00;15.80;;;;;;;-5.24;100.00;100893.44;5136821;27;20461;-35
2022/12/15 07:30:12;;;;;;;23.15;15.20;;;;;;;-5.30;100.00;100893.13;5137527;27;20054;-35
2022/12/15 07:32:37;;;;;;;22.15;15.23;;;;;;;-5.27;100.00;100884.94;5136934;27;20026;-35
2022/12/15 07:35:04;;;;;;;20.23;13.87;;;;;;;-5.04;100.00;100902.31;5137226;27;20027;-36
2022/12/15 07:37:30;;;;;;;20.50;14.88;;;;;;;-5.18;100.00;100892.91;5137094;27;20063;-36
2022/12/15 07:39:55;;;;;;;21.27;14.85;;;;;;;-5.19;100.00;100893.03;5136745;27;20068;-36
2022/12/15 07:42:21;;;;;;;21.77;14.93;;;;;;;-5.18;100.00;100890.28;5137533;27;20035;-36
2022/12/15 07:44:46;;;;;;;22.50;15.40;;;;;;;-5.22;100.00;100893.31;5137100;27;20080;-35
2022/12/15 07:47:12;;;;;;;23.40;15.27;;;;;;;-5.34;100.00;100883.78;5136961;27;20066;-36
2022/12/15 07:49:37;;;;;;;21.73;15.13;;;;;;;-5.31;100.00;100894.09;5135710;27;20031;-36
2022/12/15 07:52:03;;;;;;;22.27;14.43;;;;;;;-5.04;100.00;100899.66;5136773;27;20280;-36
2022/12/15 07:54:29;;;;;;;20.33;14.70;;;;;;;-5.09;100.00;100874.66;5137156;27;20034;-35
2022/12/15 07:56:54;;;;;;;26.55;15.30;;;;;;;-4.95;100.00;100906.81;5136738;27;20087;-35
2022/12/15 07:59:19;;;;;;;22.63;15.70;;;;;;;-5.09;100.00;100908.94;5118396;27;20047;-35
2022/12/15 08:01:45;;;;;;;20.70;14.07;;;;;;;-5.04;100.00;100912.84;5136673;27;20035;-36
2022/12/15 08:04:11;;;;;;;19.23;13.88;;;;;;;-5.03;100.00;100918.97;5135286;27;20030;-35
2022/12/15 08:06:36;;;;;;;24.33;15.15;;;;;;;-5.03;100.00;100906.59;5136559;27;20027;-35
2022/12/15 08:09:01;;;;;;;26.37;16.60;;;;;;;-4.91;100.00;100907.41;5136657;27;20100;-35
2022/12/15 08:11:27;;;;;;;21.17;14.73;;;;;;;-4.77;100.00;100908.88;5136967;27;20035;-36
2022/12/15 08:13:52;;;;;;;22.90;13.93;;;;;;;-4.65;100.00;100902.53;5136691;27;20027;-36
2022/12/15 08:16:18;;;;;;;20.83;14.30;;;;;;;-4.79;100.00;100874.69;5136183;27;20387;-36
2022/12/15 08:18:43;;;;;;;21.98;15.05;;;;;;;-4.52;100.00;100916.34;5136080;27;20479;-36
2022/12/15 08:21:10;;;;;;;21.17;15.57;;;;;;;-4.51;100.00;100920.66;5135937;27;20061;-36
2022/12/15 08:23:36;;;;;;;24.40;16.95;;;;;;;-4.48;100.00;100919.59;5136228;27;20344;-36
2022/12/15 08:26:07;;;;;;;24.13;16.50;;;;;;;-4.57;100.00;100915.91;5135962;27;20031;-36
2022/12/15 08:28:34;;;;;;;18.67;12.82;;;;;;;-4.42;100.00;100922.50;5137023;27;20027;-36
2022/12/15 08:31:10;;;;;;;23.30;16.63;;;;;;;-4.60;100.00;100921.44;5134193;27;20384;-36
2022/12/15 08:33:37;;;;;;;21.42;15.48;;;;;;;-4.61;100.00;100908.41;5136745;27;20083;-36
2022/12/15 08:36:06;;;;;;;22.10;15.25;;;;;;;-4.48;100.00;100923.06;5136256;27;20027;-36
2022/12/15 08:38:32;;;;;;;21.20;14.93;;;;;;;-4.38;100.00;100909.06;5136097;27;20061;-36
2022/12/15 08:41:06;;;;;;;19.77;14.35;;;;;;;-4.22;100.00;100930.53;5136593;27;20031;-36
2022/12/15 08:43:31;;;;;;;21.52;15.02;;;;;;;-4.14;100.00;100930.69;5136119;27;20386;-36
2022/12/15 08:45:58;;;;;;;24.93;16.80;;;;;;;-4.09;100.00;100925.84;5134391;27;20088;-35
2022/12/15 08:48:24;;;;;;;28.20;16.83;;;;;;;-4.05;100.00;100911.41;5135806;27;20126;-36
2022/12/15 08:50:49;;;;;;;23.70;16.83;;;;;;;-3.97;100.00;100931.84;5134562;27;20032;-36
2022/12/15 08:53:14;;;;;;;24.33;16.20;;;;;;;-3.86;100.00;100937.00;5135754;27;20023;-36
2022/12/15 08:55:40;;;;;;;22.87;16.83;;;;;;;-3.87;100.00;100940.63;5135844;27;20031;-36
2022/12/15 08:58:05;;;;;;;20.07;14.13;;;;;;;-3.73;100.00;100936.78;5134803;27;20035;-37
2022/12/15 09:00:30;;;;;;;23.53;15.33;;;;;;;-3.66;100.00;100938.75;5135978;27;20038;-37
2022/12/15 09:02:59;;;;;;;23.27;16.10;;;;;;;-3.68;100.00;100935.41;5135947;27;20061;-36
2022/12/15 09:05:24;;;;;;;22.98;15.43;;;;;;;-3.50;100.00;100947.94;5135118;27;20539;-35
2022/12/15 09:07:54;;;;;;;20.53;15.20;;;;;;;-3.36;100.00;100955.47;5135490;27;20030;-36
2022/12/15 09:10:19;;;;;;;22.20;15.40;;;;;;;-3.20;100.00;100949.63;5135393;27;20038;-36
2022/12/15 09:12:45;;;;;;;25.30;17.10;;;;;;;-3.27;100.00;100959.09;5135837;27;20031;-36
2022/12/15 09:15:11;;;;;;;24.10;15.60;;;;;;;-3.18;100.00;100952.97;5135196;27;20030;-36
2022/12/15 09:17:36;;;;;;;24.40;15.60;;;;;;;-3.09;100.00;100952.13;5135543;27;20023;-35
2022/12/15 09:20:02;;;;;;;23.07;16.83;;;;;;;-3.17;100.00;100955.50;5135335;27;20076;-35
2022/12/15 09:22:28;;;;;;;23.75;16.05;;;;;;;-3.21;100.00;100963.84;5135138;27;20030;-35
2022/12/15 09:24:53;;;;;;;24.67;16.52;;;;;;;-3.15;100.00;100974.69;5135499;27;20023;-36
2022/12/15 09:27:19;;;;;;;25.37;16.40;;;;;;;-3.16;100.00;100972.19;5135128;27;20027;-36
2022/12/15 09:29:44;;;;;;;21.58;15.68;;;;;;;-2.93;100.00;100973.59;5134629;27;20108;-35
2022/12/15 09:32:10;;;;;;;24.33;17.30;;;;;;;-2.82;100.00;100979.72;5135367;27;20070;-35
2022/12/15 09:34:36;;;;;;;22.53;15.90;;;;;;;-2.72;100.00;100973.41;5134943;27;20034;-35
2022/12/15 09:37:03;;;;;;;23.25;16.40;;;;;;;-2.70;100.00;100981.22;5134787;27;20027;-35
2022/12/15 09:39:28;;;;;;;24.23;16.92;;;;;;;-2.71;100.00;100974.25;5135437;27;20110;-35
2022/12/15 09:41:58;;;;;;;23.60;16.33;;;;;;;-2.60;100.00;100990.81;5134029;27;20205;-35
2022/12/15 09:44:26;;;;;;;21.38;14.85;;;;;;;-2.53;100.00;100983.16;5133532;27;20072;-35
2022/12/15 09:47:00;;;;;;;26.50;16.67;;;;;;;-2.44;100.00;100995.53;5134664;27;20046;-36
2022/12/15 09:49:31;;;;;;;23.52;17.05;;;;;;;-2.51;100.00;101010.31;5135308;27;20036;-35
2022/12/15 09:52:03;;;;;;;24.00;17.48;;;;;;;-2.58;100.00;101003.91;5134484;27;20031;-36
2022/12/15 09:54:32;;;;;;;25.33;19.05;;;;;;;-2.69;100.00;101012.00;5134290;27;20039;-36
2022/12/15 09:57:03;;;;;;;22.92;17.38;;;;;;;-2.55;100.00;101002.78;5134143;27;20471;-36
2022/12/15 09:59:58;;;;;;;25.95;18.45;;;;;;;-2.45;100.00;100999.13;5134214;27;20043;-36
2022/12/15 10:02:41;;;;;;;21.38;16.00;;;;;;;-2.44;100.00;100986.72;5054246;28;20041;-36
2022/12/15 10:05:31;;;;;;;23.35;16.75;;;;;;;-2.25;100.00;100996.44;5071043;28;20086;-36
2022/12/15 10:07:58;;;;;;;20.40;15.02;;;;;;;-2.04;100.00;100998.91;5071282;28;20033;-36
2022/12/15 10:10:49;;;;;;;21.13;16.27;;;;;;;-2.07;100.00;101007.97;5071016;28;20032;-36
2022/12/15 10:13:51;;;;;;;22.83;15.63;;;;;;;-1.87;100.00;101006.91;5011139;28;20424;-36
2022/12/15 10:16:34;;;;;;;21.13;15.68;;;;;;;-1.73;100.00;101008.22;5011818;28;20196;-36
2022/12/15 10:19:15;;;;;;;20.77;15.52;;;;;;;-1.74;100.00;101003.91;4995019;28;20096;-36
2022/12/15 10:21:41;;;;;;;25.88;17.50;;;;;;;-1.72;100.00;101001.94;5011427;28;20516;-36
2022/12/15 10:24:16;;;;;;;25.27;17.60;;;;;;;-1.70;100.00;101000.00;5011412;28;20038;-36
2022/12/15 10:26:47;;;;;;;26.80;18.33;;;;;;;-1.79;99.68;100986.78;5011519;28;20034;-41
2022/12/15 10:29:32;;;;;;;28.90;18.05;;;;;;;-1.83;98.45;100994.19;5011444;28;20132;-35
2022/12/15 10:32:04;;;;;;;27.77;17.75;;;;;;;-1.73;100.00;101000.28;5011227;28;20041;-35
2022/12/15 10:34:33;;;;;;;23.52;16.30;;;;;;;-1.66;100.00;101000.50;5011002;28;20030;-36
2022/12/15 10:36:59;;;;;;;30.23;17.65;;;;;;;-1.57;100.00;100999.63;5010789;28;20033;-36
2022/12/15 10:39:37;;;;;;;24.83;18.17;;;;;;;-1.65;99.22;100997.75;5032940;28;20086;-36
2022/12/15 10:42:19;;;;;;;27.92;18.15;;;;;;;-1.68;99.25;100991.88;5050804;28;20040;-36
2022/12/15 10:44:47;;;;;;;25.45;17.63;;;;;;;-1.52;100.00;100999.19;5050506;28;20049;-36
2022/12/15 10:47:24;;;;;;;28.70;20.48;;;;;;;-1.57;100.00;101002.28;5050192;28;20116;-36
2022/12/15 10:49:51;;;;;;;26.50;18.50;;;;;;;-1.59;99.05;100996.31;5080203;28;20031;-36
2022/12/15 10:52:35;;;;;;;30.70;19.02;;;;;;;-1.43;100.00;100998.28;5133491;27;20019;-36
2022/12/15 10:55:21;;;;;;;28.00;18.75;;;;;;;-1.34;100.00;101000.88;5135491;27;20075;-36
2022/12/15 10:57:57;;;;;;;25.80;17.88;;;;;;;-1.22;100.00;101000.66;5137962;27;20035;-36
2022/12/15 11:00:31;;;;;;;23.80;17.83;;;;;;;-1.21;100.00;100997.88;5138393;27;20026;-36
2022/12/15 11:02:57;;;;;;;25.15;18.08;;;;;;;-1.23;99.18;101001.66;5138359;27;20027;-36
2022/12/15 11:05:23;;;;;;;25.35;17.70;;;;;;;-1.20;99.61;100993.41;5138119;27;20033;-36
2022/12/15 11:07:52;;;;;;;23.00;16.95;;;;;;;-1.08;100.00;100994.84;5137799;27;20091;-36
2022/12/15 11:10:22;;;;;;;24.13;17.38;;;;;;;-0.99;100.00;100993.94;5138481;27;20371;-36
2022/12/15 11:12:56;;;;;;;26.90;17.88;;;;;;;-0.95;99.61;101000.59;5137977;27;20031;-36
2022/12/15 11:15:22;;;;;;;24.38;18.25;;;;;;;-1.06;99.32;100969.00;5138114;27;20034;-36
2022/12/15 11:18:05;;;;;;;22.23;17.23;;;;;;;-0.89;99.40;100993.84;5136350;27;20424;-36
2022/12/15 11:20:39;;;;;;;25.45;16.63;;;;;;;-0.84;99.42;100989.75;5138000;27;20038;-36
2022/12/15 11:23:13;;;;;;;23.15;17.25;;;;;;;-0.74;99.92;100986.16;5137754;27;20038;-36
2022/12/15 11:25:44;;;;;;;22.73;17.30;;;;;;;-0.75;99.19;100985.34;5137467;27;20128;-36
2022/12/15 11:28:19;;;;;;;23.60;17.08;;;;;;;-0.71;98.86;100981.38;5137689;27;20023;-36
2022/12/15 11:30:54;;;;;;;21.30;16.25;;;;;;;-0.76;97.90;100978.38;5137244;27;20406;-36
2022/12/15 11:33:19;;;;;;;22.80;16.92;;;;;;;-0.76;98.13;100988.16;5138034;27;20034;-36
2022/12/15 11:35:44;;;;;;;22.30;16.30;;;;;;;-0.70;99.17;100987.53;5137780;27;20027;-36
2022/12/15 11:38:22;;;;;;;25.97;18.37;;;;;;;-0.64;98.57;100998.38;5137560;27;20019;-36
2022/12/15 11:40:49;;;;;;;26.27;17.17;;;;;;;-0.72;97.18;100978.91;5136786;27;20027;-36
2022/12/15 11:43:17;;;;;;;23.15;18.27;;;;;;;-0.67;97.35;100992.53;5137619;27;20027;-36
2022/12/15 11:46:00;;;;;;;23.88;17.55;;;;;;;-0.59;97.87;100989.94;5137012;27;20087;-36
2022/12/15 11:48:28;;;;;;;22.95;16.67;;;;;;;-0.58;98.66;100979.19;5137107;27;20031;-35
2022/12/15 11:50:56;;;;;;;24.80;17.88;;;;;;;-0.60;97.96;100975.00;5137222;27;20027;-35
2022/12/15 11:53:50;;;;;;;22.75;17.08;;;;;;;-0.50;97.31;100983.69;5137131;27;20023;-35
2022/12/15 11:56:28;;;;;;;21.83;17.08;;;;;;;-0.46;98.32;100990.38;5136133;27;20459;-36
2022/12/15 11:59:14;;;;;;;21.33;16.92;;;;;;;-0.44;97.85;100982.22;5136824;27;20067;-36
2022/12/15 12:01:55;;;;;;;21.60;16.80;;;;;;;-0.46;97.44;100987.72;5137234;27;20107;-36
2022/12/15 12:04:27;;;;;;;22.02;17.58;;;;;;;-0.53;98.23;100957.47;5137060;27;20482;-36
2022/12/15 12:07:14;;;;;;;24.38;18.23;;;;;;;-0.36;98.21;100980.47;5135632;27;20068;-36
2022/12/15 12:09:45;;;;;;;;;;;;;;;-0.21;98.01;100977.22;5137840;27;20144;-36
2022/12/15 12:12:15;;;;;;;20.67;15.07;;;;;;;-0.20;97.46;100966.44;5136342;27;19931;-36
2022/12/15 12:14:46;;;;;;;24.02;16.85;;;;;;;-0.18;97.67;100961.81;5137562;27;20066;-35
2022/12/15 12:17:49;;;;;;;22.25;16.40;;;;;;;-0.05;98.00;100969.34;5136705;27;20023;-35
2022/12/15 12:20:28;;;;;;;21.38;16.75;;;;;;;-0.03;98.44;100959.41;5134373;27;20039;-35
2022/12/15 12:23:04;;;;;;;21.02;17.00;;;;;;;-0.10;97.24;100947.72;5136341;27;20031;-35
2022/12/15 12:25:36;;;;;;;20.83;14.90;;;;;;;0.01;98.33;100955.44;5136860;27;20055;-36
2022/12/15 12:28:18;;;;;;;23.77;16.70;;;;;;;0.09;97.88;100957.28;5136036;27;20035;-36
2022/12/15 12:30:46;;;;;;;23.02;17.02;;;;;;;0.02;96.90;100969.56;5137028;27;20051;-36
2022/12/15 12:33:30;;;;;;;21.33;17.45;;;;;;;0.07;98.32;100954.78;5136173;27;20466;-36
2022/12/15 12:36:05;;;;;;;23.65;18.20;;;;;;;0.09;97.99;100952.78;5136438;27;20033;-36
2022/12/15 12:38:39;;;;;;;22.92;17.58;;;;;;;0.11;97.75;100956.13;5136011;27;20459;-36
2022/12/15 12:41:23;;;;;;;19.77;15.13;;;;;;;0.23;98.76;100954.00;5136513;27;20023;-36
2022/12/15 12:43:59;;;;;;;24.80;17.67;;;;;;;0.15;97.60;100952.16;5135508;27;20449;-36
2022/12/15 12:46:30;;;;;;;21.88;17.08;;;;;;;0.19;97.80;100953.50;5135901;27;20463;-36
2022/12/15 12:49:04;;;;;;;23.08;17.65;;;;;;;0.18;97.60;100951.81;5135644;27;20019;-36
2022/12/15 12:51:36;;;;;;;19.02;15.50;;;;;;;0.21;98.82;100946.19;5134451;27;20035;-36
2022/12/15 12:54:29;;;;;;;21.45;16.92;;;;;;;0.25;98.86;100944.88;5136318;27;20356;-36
2022/12/15 12:56:54;;;;;;;21.83;16.25;;;;;;;0.32;99.26;100941.56;5135366;27;20360;-36
2022/12/15 12:59:29;;;;;;;22.90;16.33;;;;;;;0.22;98.17;100926.56;5136080;27;20046;-36
2022/12/15 13:02:09;;;;;;;24.27;17.23;;;;;;;0.29;98.39;100941.88;5135484;27;20031;-36
2022/12/15 13:04:35;;;;;;;26.75;17.48;;;;;;;0.23;97.47;100941.53;5135873;27;20027;-36
2022/12/15 13:07:04;;;;;;;22.90;18.20;;;;;;;0.21;97.29;100945.38;5136075;27;20049;-36
2022/12/15 13:10:07;;;;;;;21.08;16.00;;;;;;;0.28;98.15;100929.59;5135847;27;20042;-36
2022/12/15 13:12:48;;;;;;;23.23;16.52;;;;;;;0.30;98.49;100928.44;5134723;27;20383;-36
2022/12/15 13:15:34;;;;;;;21.60;16.33;;;;;;;0.31;97.46;100923.97;5133971;27;20027;-36
2022/12/15 13:18:06;;;;;;;23.20;16.45;;;;;;;0.40;98.41;100913.16;5117261;27;20046;-36
2022/12/15 13:20:34;;;;;;;20.83;16.52;;;;;;;0.32;97.47;100899.00;5135233;27;20068;-36
2022/12/15 13:23:15;;;;;;;23.42;17.38;;;;;;;0.44;97.14;100916.31;5134725;27;20106;-36
2022/12/15 13:25:43;;;;;;;22.95;17.15;;;;;;;0.47;97.06;100902.69;5135381;27;20115;-36
2022/12/15 13:28:30;;;;;;;22.05;16.67;;;;;;;0.60;97.15;100911.03;5134905;27;20077;-36
2022/12/15 13:31:17;;;;;;;23.45;16.27;;;;;;;0.67;97.12;100904.03;5135528;27;20057;-36
2022/12/15 13:34:13;;;;;;;33.47;18.27;;;;;;;0.65;96.34;100903.41;5135190;27;20066;-36
2022/12/15 13:36:38;;;;;;;21.15;16.13;;;;;;;0.59;97.44;100885.44;5134937;27;20379;-36
2022/12/15 13:39:26;;;;;;;21.97;16.13;;;;;;;0.75;98.63;100900.56;5135145;27;20063;-36
2022/12/15 13:42:11;;;;;;;22.88;17.95;;;;;;;0.72;97.04;100891.06;5134359;27;20471;-36
2022/12/15 13:44:38;;;;;;;25.80;20.40;;;;;;;0.77;98.47;100888.75;5072035;28;20394;-36